Time;durP1;ratioP1;P1;durP2;ratioP2;P2;SDS_P1;SDS_P2;PMS_P1;PMS_P2;Temp;Humidity;BMP_temperature;BMP_pressure;BME280_temperature;BME280_humidity;BME280_pressure;Samples;Min_cycle;Max_cycle;Signal;HPM_P1;HPM_P2
2022/10/10 03:01:48;;;;;;;;;;;9.00;99.90;;;;;;5587090;23;19940;-65
2022/10/10 03:04:15;;;;;;;;;;;9.00;99.90;;;;;;5022401;28;19925;-66
2022/10/10 03:06:42;;;;;;;;;;;9.00;99.90;;;;;;5031045;28;19979;-65
2022/10/10 03:09:08;;;;;;;;;;;9.10;99.90;;;;;;5031197;28;19989;-68
2022/10/10 03:11:35;;;;;;;;;;;9.00;99.90;;;;;;5022658;28;20320;-67
2022/10/10 03:14:02;;;;;;;;;;;9.10;99.90;;;;;;5011364;28;20019;-67
2022/10/10 03:16:28;;;;;;;;;;;9.10;99.90;;;;;;5011292;28;20395;-67
2022/10/10 03:18:56;;;;;;;;;;;9.00;99.90;;;;;;5011368;28;19956;-67
2022/10/10 03:21:23;;;;;;;;;;;9.00;99.90;;;;;;5012682;28;19971;-66
2022/10/10 03:23:50;;;;;;;;;;;9.00;99.90;;;;;;5011396;28;19926;-67
2022/10/10 03:26:16;;;;;;;;;;;9.00;99.90;;;;;;5011590;28;20037;-65
2022/10/10 03:28:43;;;;;;;;;;;9.00;99.90;;;;;;5011432;28;20370;-65
2022/10/10 03:31:10;;;;;;;;;;;9.00;99.90;;;;;;5010982;28;20020;-66
2022/10/10 03:33:36;;;;;;;;;;;9.00;99.90;;;;;;5012343;28;20024;-66
2022/10/10 03:36:04;;;;;;;;;;;9.00;99.90;;;;;;5011299;28;20012;-67
2022/10/10 03:38:31;;;;;;;;;;;8.90;99.90;;;;;;5011124;28;19972;-66
2022/10/10 03:40:58;;;;;;;;;;;8.90;99.90;;;;;;5010941;28;19976;-66
2022/10/10 03:43:24;;;;;;;;;;;8.90;99.90;;;;;;5010905;28;20008;-66
2022/10/10 03:45:51;;;;;;;;;;;8.80;99.90;;;;;;5011046;28;19972;-67
2022/10/10 03:48:18;;;;;;;;;;;8.80;99.90;;;;;;5011088;28;19926;-67
2022/10/10 03:50:44;;;;;;;;;;;8.80;99.90;;;;;;5010657;28;20301;-66
2022/10/10 03:53:13;;;;;;;;;;;8.80;99.90;;;;;;5010576;28;20446;-67
2022/10/10 03:55:40;;;;;;;;;;;8.80;99.90;;;;;;5010746;28;20343;-67
2022/10/10 03:58:07;;;;;;;;;;;8.70;99.90;;;;;;5010914;28;20004;-66
2022/10/10 04:00:33;;;;;;;;;;;8.70;99.90;;;;;;5010584;28;20327;-66
2022/10/10 04:03:05;;;;;;;;;;;8.70;99.90;;;;;;5009886;28;19988;-66
2022/10/10 04:05:32;;;;;;;;;;;8.60;99.90;;;;;;5010403;28;20322;-67
2022/10/10 04:07:59;;;;;;;;;;;8.70;99.90;;;;;;5010722;28;19972;-65
2022/10/10 04:10:27;;;;;;;;;;;8.70;99.90;;;;;;5010445;28;19926;-68
2022/10/10 04:12:54;;;;;;;;;;;8.70;99.90;;;;;;5010072;28;19925;-66
2022/10/10 04:15:20;;;;;;;;;;;8.80;99.90;;;;;;5010680;28;19936;-65
2022/10/10 04:17:47;;;;;;;;;;;8.80;99.90;;;;;;5010490;28;19976;-66
2022/10/10 04:20:14;;;;;;;;;;;8.70;99.90;;;;;;5010403;28;19925;-66
2022/10/10 04:22:41;;;;;;;;;;;8.60;99.90;;;;;;5010247;28;19929;-66
2022/10/10 04:25:08;;;;;;;;;;;8.60;99.90;;;;;;5010484;28;19925;-67
2022/10/10 04:27:37;;;;;;;;;;;8.60;99.90;;;;;;5010557;28;19929;-66
2022/10/10 04:30:04;;;;;;;;;;;8.50;99.90;;;;;;5010087;28;19925;-66
2022/10/10 04:32:31;;;;;;;;;;;8.50;99.90;;;;;;5010234;28;19933;-66
2022/10/10 04:34:57;;;;;;;;;;;8.40;99.90;;;;;;5010322;28;20429;-67
2022/10/10 04:37:24;;;;;;;;;;;8.40;99.90;;;;;;5010206;28;20273;-65
2022/10/10 04:39:51;;;;;;;;;;;8.30;99.90;;;;;;5009958;28;19945;-68
2022/10/10 04:42:18;;;;;;;;;;;8.30;99.90;;;;;;5009953;28;19975;-67
2022/10/10 04:44:46;;;;;;;;;;;8.40;99.90;;;;;;5010007;28;19929;-67
2022/10/10 04:47:13;;;;;;;;;;;8.40;99.90;;;;;;5010038;28;19926;-66
2022/10/10 04:49:40;;;;;;;;;;;8.40;99.90;;;;;;5010097;28;19977;-68
2022/10/10 04:52:07;;;;;;;;;;;8.30;99.90;;;;;;5010054;28;20430;-66
2022/10/10 04:54:34;;;;;;;;;;;8.30;99.90;;;;;;5009932;28;19925;-65
2022/10/10 04:57:01;;;;;;;;;;;8.30;99.90;;;;;;5010305;28;19929;-66
2022/10/10 04:59:28;;;;;;;;;;;8.30;99.90;;;;;;5009754;28;20355;-66
2022/10/10 05:01:56;;;;;;;;;;;8.30;99.90;;;;;;5001994;28;19925;-66
2022/10/10 05:04:22;;;;;;;;;;;8.30;99.90;;;;;;4999096;28;19984;-66
2022/10/10 05:06:49;;;;;;;;;;;8.20;99.90;;;;;;5006345;28;19926;-67
2022/10/10 05:09:16;;;;;;;;;;;8.30;99.90;;;;;;5006499;28;20324;-66
2022/10/10 05:11:43;;;;;;;;;;;8.30;99.90;;;;;;4990238;28;19926;-67
2022/10/10 05:14:09;;;;;;;;;;;8.30;99.90;;;;;;5006447;28;19930;-67
2022/10/10 05:16:36;;;;;;;;;;;8.30;99.90;;;;;;5006870;28;20384;-66
2022/10/10 05:19:04;;;;;;;;;;;8.30;99.90;;;;;;5011227;28;19930;-67
2022/10/10 05:21:31;;;;;;;;;;;8.20;99.90;;;;;;5013370;28;19936;-67
2022/10/10 05:23:58;;;;;;;;;;;8.20;99.90;;;;;;5012967;28;20315;-66
2022/10/10 05:26:25;;;;;;;;;;;8.20;99.90;;;;;;5013479;28;20293;-66
2022/10/10 05:28:53;;;;;;;;;;;8.30;99.90;;;;;;5013027;28;20024;-67
2022/10/10 05:31:20;;;;;;;;;;;8.30;99.90;;;;;;5013059;28;19937;-67
2022/10/10 05:33:47;;;;;;;;;;;8.20;99.90;;;;;;5012627;28;19926;-65
2022/10/10 05:36:15;;;;;;;;;;;8.20;99.90;;;;;;5010695;28;19934;-65
2022/10/10 05:38:42;;;;;;;;;;;8.20;99.90;;;;;;4993179;28;19926;-68
2022/10/10 05:41:09;;;;;;;;;;;8.10;99.90;;;;;;4993175;28;19932;-66
2022/10/10 05:43:36;;;;;;;;;;;8.10;99.90;;;;;;4993137;28;19934;-66
2022/10/10 05:46:02;;;;;;;;;;;8.10;99.90;;;;;;4993284;28;20396;-67
2022/10/10 05:48:29;;;;;;;;;;;8.10;99.90;;;;;;4992988;28;20340;-66
2022/10/10 05:50:56;;;;;;;;;;;8.10;99.90;;;;;;4992716;28;19929;-67
2022/10/10 05:53:25;;;;;;;;;;;8.10;99.90;;;;;;4992791;28;20352;-66
2022/10/10 05:55:52;;;;;;;;;;;8.20;99.90;;;;;;4993186;28;19925;-66
2022/10/10 05:58:20;;;;;;;;;;;8.20;99.90;;;;;;4993319;28;19929;-66
2022/10/10 06:00:47;;;;;;;;;;;8.10;99.90;;;;;;4992711;28;19926;-66
2022/10/10 06:03:16;;;;;;;;;;;8.10;99.90;;;;;;4992171;28;19926;-67
2022/10/10 06:05:43;;;;;;;;;;;8.10;99.90;;;;;;4992869;28;19925;-67
2022/10/10 06:08:10;;;;;;;;;;;8.10;99.90;;;;;;4992850;28;19977;-66
2022/10/10 06:10:39;;;;;;;;;;;8.10;99.90;;;;;;4996705;28;19929;-65
2022/10/10 06:13:06;;;;;;;;;;;8.10;99.90;;;;;;5012087;28;19929;-67
2022/10/10 06:15:33;;;;;;;;;;;8.20;99.90;;;;;;5012228;28;19925;-67
2022/10/10 06:17:59;;;;;;;;;;;8.20;99.90;;;;;;5012367;28;19926;-66
2022/10/10 06:20:26;;;;;;;;;;;8.20;99.90;;;;;;5012151;28;19926;-67
2022/10/10 06:22:53;;;;;;;;;;;8.30;99.90;;;;;;5011710;28;20285;-66
2022/10/10 06:25:20;;;;;;;;;;;8.30;99.90;;;;;;5012300;28;19925;-67
2022/10/10 06:27:48;;;;;;;;;;;8.40;99.90;;;;;;5011900;28;19925;-67
2022/10/10 06:30:15;;;;;;;;;;;8.40;99.90;;;;;;5010996;28;19984;-66
2022/10/10 06:32:42;;;;;;;;;;;8.50;99.90;;;;;;5011658;28;20024;-68
2022/10/10 06:35:09;;;;;;;;;;;8.60;99.90;;;;;;5011834;28;19926;-66
2022/10/10 06:37:36;;;;;;;;;;;8.70;99.90;;;;;;5011941;28;19925;-67
2022/10/10 06:40:03;;;;;;;;;;;8.80;99.90;;;;;;5011676;28;19930;-66
2022/10/10 06:42:30;;;;;;;;;;;8.90;99.90;;;;;;5011655;28;20400;-67
2022/10/10 06:44:59;;;;;;;;;;;9.00;99.90;;;;;;5011530;28;19930;-67
2022/10/10 06:47:26;;;;;;;;;;;9.10;99.90;;;;;;5011581;28;19964;-66
2022/10/10 06:49:52;;;;;;;;;;;9.30;99.90;;;;;;5011664;28;19925;-65
2022/10/10 06:52:19;;;;;;;;;;;9.40;99.90;;;;;;5011344;28;19930;-65
2022/10/10 06:54:46;;;;;;;;;;;9.50;99.90;;;;;;5011667;28;20281;-67
2022/10/10 06:57:13;;;;;;;;;;;9.60;99.90;;;;;;5011397;28;19925;-66
2022/10/10 06:59:39;;;;;;;;;;;9.70;99.90;;;;;;5011043;28;20359;-67
2022/10/10 07:02:10;;;;;;;;;;;9.70;99.90;;;;;;5011044;28;19929;-66
2022/10/10 07:04:37;;;;;;;;;;;9.80;99.90;;;;;;5012666;28;19927;-66
2022/10/10 07:07:03;;;;;;;;;;;10.00;99.90;;;;;;5011341;28;20027;-64
2022/10/10 07:09:30;;;;;;;;;;;10.10;99.90;;;;;;5011028;28;20040;-66
2022/10/10 07:11:56;;;;;;;;;;;10.20;99.90;;;;;;4995922;28;20024;-67
2022/10/10 07:14:24;;;;;;;;;;;10.30;99.90;;;;;;4991448;28;19930;-67
2022/10/10 07:16:50;;;;;;;;;;;10.40;99.90;;;;;;4991895;28;20308;-67
2022/10/10 07:19:20;;;;;;;;;;;10.50;99.90;;;;;;4991591;28;20024;-67
2022/10/10 07:21:47;;;;;;;;;;;10.60;99.90;;;;;;4991401;28;19925;-67
2022/10/10 07:24:13;;;;;;;;;;;10.60;99.90;;;;;;4991551;28;20033;-65
2022/10/10 07:26:40;;;;;;;;;;;10.60;99.90;;;;;;4991579;28;20076;-67
2022/10/10 07:29:06;;;;;;;;;;;10.70;99.90;;;;;;4991121;28;19933;-64
2022/10/10 07:31:33;;;;;;;;;;;10.80;99.90;;;;;;4992911;28;19969;-67
2022/10/10 07:34:00;;;;;;;;;;;10.90;99.90;;;;;;4991016;28;20005;-67
2022/10/10 07:36:28;;;;;;;;;;;11.00;99.90;;;;;;4991467;28;20040;-66
2022/10/10 07:38:54;;;;;;;;;;;11.00;99.90;;;;;;4992224;28;20353;-66
2022/10/10 07:41:21;;;;;;;;;;;11.00;99.90;;;;;;4991460;28;19965;-65
2022/10/10 07:43:48;;;;;;;;;;;11.10;99.90;;;;;;4990940;28;19972;-67
2022/10/10 07:46:15;;;;;;;;;;;11.10;99.90;;;;;;4992546;28;20035;-64
2022/10/10 07:48:42;;;;;;;;;;;11.20;99.90;;;;;;4990810;28;19929;-67
2022/10/10 07:51:09;;;;;;;;;;;11.20;99.90;;;;;;4990600;28;20282;-66
2022/10/10 07:53:37;;;;;;;;;;;11.30;99.90;;;;;;4990725;28;20024;-67
2022/10/10 07:56:04;;;;;;;;;;;11.20;99.90;;;;;;4992097;28;20029;-67
2022/10/10 07:58:30;;;;;;;;;;;11.30;99.90;;;;;;4992433;28;19929;-67
2022/10/10 08:01:01;;;;;;;;;;;11.30;99.90;;;;;;4990238;28;20359;-66
2022/10/10 08:03:28;;;;;;;;;;;11.40;99.90;;;;;;4991817;28;20020;-65
2022/10/10 08:05:54;;;;;;;;;;;11.50;99.90;;;;;;4990921;28;20008;-67
2022/10/10 08:08:21;;;;;;;;;;;11.60;99.90;;;;;;4991836;28;20484;-66
2022/10/10 08:10:49;;;;;;;;;;;11.70;99.90;;;;;;4996211;28;19968;-67
2022/10/10 08:13:16;;;;;;;;;;;11.80;99.90;;;;;;5010051;28;19929;-67
2022/10/10 08:15:42;;;;;;;;;;;11.90;99.90;;;;;;5010473;28;19930;-67
2022/10/10 08:18:09;;;;;;;;;;;12.00;99.90;;;;;;5010354;28;20036;-66
2022/10/10 08:20:36;;;;;;;;;;;12.20;99.90;;;;;;5011337;28;19968;-67
2022/10/10 08:23:02;;;;;;;;;;;12.30;99.90;;;;;;5011086;28;20623;-67
2022/10/10 08:25:29;;;;;;;;;;;12.50;99.90;;;;;;5010135;28;19926;-66
2022/10/10 08:27:57;;;;;;;;;;;12.60;99.90;;;;;;5011333;28;19957;-65
2022/10/10 08:30:23;;;;;;;;;;;12.70;99.90;;;;;;5010046;28;19926;-66
2022/10/10 08:32:50;;;;;;;;;;;12.80;99.90;;;;;;5009697;28;19925;-67
2022/10/10 08:35:17;;;;;;;;;;;13.00;99.90;;;;;;5010019;28;19925;-68
2022/10/10 08:37:44;;;;;;;;;;;13.10;99.90;;;;;;5010253;28;19933;-66
2022/10/10 08:40:13;;;;;;;;;;;13.20;99.90;;;;;;5009822;28;19925;-67
2022/10/10 08:42:42;;;;;;;;;;;13.30;99.90;;;;;;5009622;28;20351;-67
2022/10/10 08:45:11;;;;;;;;;;;13.50;99.90;;;;;;5010170;28;19929;-67
2022/10/10 08:47:41;;;;;;;;;;;13.70;99.90;;;;;;5010159;28;19926;-67
2022/10/10 08:50:14;;;;;;;;;;;13.80;99.90;;;;;;5009750;28;19926;-67
2022/10/10 08:52:43;;;;;;;;;;;14.00;99.90;;;;;;5011659;28;19925;-67
2022/10/10 08:55:14;;;;;;;;;;;14.20;99.90;;;;;;5013787;28;19925;-65
2022/10/10 08:57:46;;;;;;;;;;;14.30;99.90;;;;;;5013857;28;20336;-67
2022/10/10 09:00:15;;;;;;;;;;;14.50;99.90;;;;;;5014001;28;19987;-67
2022/10/10 09:02:45;;;;;;;;;;;14.70;99.90;;;;;;5013079;28;19925;-67
2022/10/10 09:05:15;;;;;;;;;;;14.90;99.90;;;;;;5013452;28;19972;-67
2022/10/10 09:07:48;;;;;;;;;;;15.10;99.90;;;;;;5013612;28;20339;-67
2022/10/10 09:10:18;;;;;;;;;;;15.40;99.90;;;;;;5011852;28;19929;-66
2022/10/10 09:12:49;;;;;;;;;;;15.60;99.90;;;;;;4993558;28;19926;-67
2022/10/10 09:15:20;;;;;;;;;;;15.70;99.90;;;;;;4994184;28;19925;-66
2022/10/10 09:17:51;;;;;;;;;;;15.90;99.90;;;;;;4993917;28;19972;-67
2022/10/10 09:20:27;;;;;;;;;;;16.20;99.90;;;;;;4993649;28;19929;-67
2022/10/10 09:22:58;;;;;;;;;;;16.40;99.90;;;;;;4993532;28;19929;-66
2022/10/10 09:25:27;;;;;;;;;;;16.60;99.90;;;;;;4993967;28;19966;-67
2022/10/10 09:27:58;;;;;;;;;;;16.80;99.90;;;;;;4993906;28;19926;-65
2022/10/10 09:30:28;;;;;;;;;;;16.70;99.90;;;;;;4993310;28;19965;-67
2022/10/10 09:32:58;;;;;;;;;;;16.80;99.90;;;;;;4993419;28;19976;-68
2022/10/10 09:35:26;;;;;;;;;;;16.70;99.90;;;;;;4993556;28;19926;-67
2022/10/10 09:37:55;;;;;;;;;;;16.90;99.90;;;;;;4993646;28;20032;-67
2022/10/10 09:40:25;;;;;;;;;;;16.90;99.90;;;;;;4993404;28;19981;-65
2022/10/10 09:42:52;;;;;;;;;;;17.00;99.90;;;;;;4993423;28;19930;-67
2022/10/10 09:45:19;;;;;;;;;;;17.10;99.90;;;;;;4993367;28;19925;-66
2022/10/10 09:47:49;;;;;;;;;;;17.30;99.90;;;;;;4993594;28;19933;-67
2022/10/10 09:50:16;;;;;;;;;;;17.50;99.90;;;;;;4993533;28;19926;-67
2022/10/10 09:52:44;;;;;;;;;;;17.50;99.90;;;;;;4993200;28;19930;-66
2022/10/10 09:55:23;;;;;;;;;;;17.70;99.90;;;;;;4993222;28;19964;-67
2022/10/10 09:57:51;;;;;;;;;;;17.80;99.90;;;;;;4993406;28;19926;-66
2022/10/10 10:00:26;;;;;;;;;;;18.00;99.90;;;;;;4992848;28;19926;-66
2022/10/10 10:03:04;;;;;;;;;;;18.20;99.90;;;;;;4992668;28;19925;-66
2022/10/10 10:05:31;;;;;;;;;;;18.50;99.90;;;;;;4992288;28;19925;-66
2022/10/10 10:07:58;;;;;;;;;;;19.00;99.90;;;;;;4993230;28;19926;-66
2022/10/10 10:10:26;;;;;;;;;;;19.30;99.90;;;;;;4995214;28;20308;-67
2022/10/10 10:12:53;;;;;;;;;;;19.60;99.90;;;;;;5012251;28;20455;-65
2022/10/10 10:15:21;;;;;;;;;;;19.90;99.90;;;;;;5012367;28;19928;-66
2022/10/10 10:18:08;;;;;;;;;;;20.10;99.90;;;;;;5012294;28;19934;-66
2022/10/10 10:20:38;;;;;;;;;;;20.20;99.90;;;;;;5012209;28;20297;-67
2022/10/10 10:23:05;;;;;;;;;;;20.40;99.90;;;;;;5012183;28;20344;-66
2022/10/10 10:25:34;;;;;;;;;;;20.70;99.90;;;;;;5012397;28;19926;-67
2022/10/10 10:28:19;;;;;;;;;;;22.40;99.90;;;;;;5011861;28;20001;-67
2022/10/10 10:30:46;;;;;;;;;;;24.90;99.90;;;;;;5012158;28;19929;-67
2022/10/10 10:33:15;;;;;;;;;;;27.50;99.90;;;;;;5011675;28;20350;-67
2022/10/10 10:35:45;;;;;;;;;;;31.80;99.90;;;;;;5012023;28;19926;-67
2022/10/10 10:38:21;;;;;;;;;;;32.40;99.90;;;;;;5011974;28;19959;-67
2022/10/10 10:40:56;;;;;;;;;;;33.40;99.90;;;;;;5011571;28;19925;-67
2022/10/10 10:43:32;;;;;;;;;;;34.30;99.90;;;;;;5011717;28;19927;-67
2022/10/10 10:46:04;;;;;;;;;;;31.40;99.90;;;;;;5011789;28;19960;-67
2022/10/10 10:48:39;;;;;;;;;;;29.90;99.90;;;;;;5011821;28;19951;-67
2022/10/10 10:51:14;;;;;;;;;;;28.90;99.90;;;;;;5011396;28;19925;-66
2022/10/10 10:53:44;;;;;;;;;;;30.40;99.90;;;;;;5011585;28;19925;-67
2022/10/10 10:56:18;;;;;;;;;;;28.10;99.90;;;;;;5011657;28;20040;-67
2022/10/10 10:58:56;;;;;;;;;;;27.60;99.90;;;;;;5011482;28;19933;-68
2022/10/10 11:01:25;;;;;;;;;;;26.50;99.90;;;;;;5010662;28;20446;-67
2022/10/10 11:03:58;;;;;;;;;;;25.20;99.90;;;;;;5010467;28;20343;-67
2022/10/10 11:06:36;;;;;;;;;;;24.80;99.90;;;;;;5010593;28;19925;-68
2022/10/10 11:09:06;;;;;;;;;;;24.70;99.90;;;;;;5010197;28;20388;-67
2022/10/10 11:11:39;;;;;;;;;;;24.00;99.90;;;;;;4998384;28;19980;-68
2022/10/10 11:14:09;;;;;;;;;;;24.70;99.90;;;;;;4990697;28;19933;-67
2022/10/10 11:16:37;;;;;;;;;;;25.10;99.90;;;;;;4990550;28;19925;-66
2022/10/10 11:19:08;;;;;;;;;;;24.50;99.90;;;;;;4990411;28;20400;-68
2022/10/10 11:21:38;;;;;;;;;;;23.70;99.90;;;;;;4990907;28;19937;-67
2022/10/10 11:24:09;;;;;;;;;;;23.20;99.90;;;;;;4990285;28;19929;-66
2022/10/10 11:26:38;;;;;;;;;;;22.70;99.90;;;;;;4990997;28;19925;-67
2022/10/10 11:29:06;;;;;;;;;;;22.30;99.90;;;;;;4990175;28;19930;-67
2022/10/10 11:31:36;;;;;;;;;;;21.60;99.90;;;;;;4990605;28;19977;-67
2022/10/10 11:34:06;;;;;;;;;;;21.20;99.90;;;;;;4990182;28;19984;-67
2022/10/10 11:36:35;;;;;;;;;;;21.20;99.90;;;;;;4990854;28;19930;-67
2022/10/10 11:39:09;;;;;;;;;;;21.50;99.90;;;;;;4990591;28;19933;-67
2022/10/10 11:41:39;;;;;;;;;;;21.50;99.90;;;;;;4990420;28;19933;-67
2022/10/10 11:44:08;;;;;;;;;;;21.30;99.90;;;;;;4990231;28;19926;-66
2022/10/10 11:46:39;;;;;;;;;;;21.40;99.90;;;;;;4992416;28;20300;-66
2022/10/10 11:49:08;;;;;;;;;;;21.30;99.90;;;;;;5005134;28;19925;-64
2022/10/10 11:51:39;;;;;;;;;;;21.00;99.90;;;;;;5002498;28;19964;-64
2022/10/10 11:54:12;;;;;;;;;;;20.70;99.90;;;;;;5002041;28;20340;-65
2022/10/10 11:56:41;;;;;;;;;;;20.80;99.90;;;;;;5000205;28;19925;-65
2022/10/10 11:59:13;;;;;;;;;;;20.80;99.90;;;;;;4993680;28;19934;-65
2022/10/10 12:01:42;;;;;;;;;;;20.80;99.90;;;;;;4919195;28;1910653;-62
2022/10/10 12:04:09;;;;;;;;;;;21.00;99.90;;;;;;4981333;28;19976;-62
2022/10/10 12:06:38;;;;;;;;;;;21.50;99.90;;;;;;4991103;28;20381;-62
2022/10/10 12:09:09;;;;;;;;;;;21.60;99.90;;;;;;4990618;28;19930;-62
2022/10/10 12:11:39;;;;;;;;;;;22.60;99.90;;;;;;4996086;28;19926;-64
2022/10/10 12:14:08;;;;;;;;;;;23.00;99.90;;;;;;4999089;28;19929;-63
2022/10/10 12:16:37;;;;;;;;;;;22.60;99.90;;;;;;5004726;28;19930;-63
2022/10/10 12:19:05;;;;;;;;;;;22.20;99.90;;;;;;4994642;28;19929;-67
2022/10/10 12:21:50;;;;;;;;;;;22.10;99.90;;;;;;4998766;28;19925;-62
2022/10/10 12:24:18;;;;;;;;;;;23.00;99.90;;;;;;4989437;28;20021;-63
2022/10/10 12:27:05;;;;;;;;;;;23.40;99.90;;;;;;4988893;28;19934;-63
2022/10/10 12:29:41;;;;;;;;;;;23.70;99.90;;;;;;4989185;28;19925;-63
2022/10/10 12:32:25;;;;;;;;;;;23.70;99.90;;;;;;4989728;28;19961;-63
2022/10/10 12:35:00;;;;;;;;;;;23.30;99.90;;;;;;4998390;28;19925;-63
2022/10/10 12:37:27;;;;;;;;;;;23.40;99.90;;;;;;5001652;28;19988;-62
2022/10/10 12:40:18;;;;;;;;;;;22.80;99.90;;;;;;5009815;28;19932;-62
2022/10/10 12:43:21;;;;;;;;;;;22.50;99.90;;;;;;4989930;28;19976;-62
2022/10/10 12:46:21;;;;;;;;;;;23.00;99.90;;;;;;5010147;28;19926;-62
2022/10/10 12:48:57;;;;;;;;;;;23.60;99.90;;;;;;4934237;29;20477;-65
2022/10/10 12:51:24;;;;;;;;;;;24.60;99.90;;;;;;4934155;29;19981;-62
2022/10/10 12:53:52;;;;;;;;;;;23.70;99.90;;;;;;4970138;28;19925;-62
2022/10/10 12:56:31;;;;;;;;;;;23.10;99.90;;;;;;5010879;28;19925;-62
2022/10/10 12:59:00;;;;;;;;;;;22.40;99.90;;;;;;5010667;28;19925;-61
2022/10/10 13:01:29;;;;;;;;;;;22.10;99.90;;;;;;5010601;28;19930;-62
2022/10/10 13:03:56;;;;;;;;;;;21.90;99.90;;;;;;5010653;28;19933;-62
2022/10/10 13:06:27;;;;;;;;;;;21.60;99.90;;;;;;5010292;28;19929;-62
2022/10/10 13:08:55;;;;;;;;;;;22.20;99.90;;;;;;5008835;28;19933;-63
2022/10/10 13:11:22;;;;;;;;;;;22.10;99.90;;;;;;5009763;28;20331;-61
2022/10/10 13:13:49;;;;;;;;;;;22.30;99.90;;;;;;5009568;28;19926;-63
2022/10/10 13:16:19;;;;;;;;;;;22.20;99.90;;;;;;5010060;28;20001;-61
2022/10/10 13:18:49;;;;;;;;;;;22.00;99.90;;;;;;5009146;28;19937;-62
2022/10/10 13:21:18;;;;;;;;;;;22.00;99.90;;;;;;5009639;28;19933;-63
2022/10/10 13:23:46;;;;;;;;;;;23.00;99.90;;;;;;5009573;28;20293;-67
2022/10/10 13:26:21;;;;;;;;;;;22.90;99.90;;;;;;5009595;28;19932;-61
2022/10/10 13:28:48;;;;;;;;;;;23.10;99.90;;;;;;5009615;28;19960;-61
2022/10/10 13:31:15;;;;;;;;;;;25.20;99.90;;;;;;5009318;28;20392;-63
2022/10/10 13:33:43;;;;;;;;;;;26.70;99.90;;;;;;5009090;28;19925;-64
2022/10/10 13:36:18;;;;;;;;;;;26.40;99.90;;;;;;5009885;28;19929;-63
2022/10/10 13:38:46;;;;;;;;;;;25.00;99.90;;;;;;5009532;28;19976;-68
2022/10/10 13:41:13;;;;;;;;;;;24.10;99.90;;;;;;5012896;28;20033;-63
2022/10/10 13:43:40;;;;;;;;;;;23.40;99.90;;;;;;5012479;28;19929;-67
2022/10/10 13:46:19;;;;;;;;;;;22.70;99.90;;;;;;5012741;28;20388;-63
2022/10/10 13:48:47;;;;;;;;;;;21.60;99.90;;;;;;5013148;28;19965;-65
2022/10/10 13:51:14;;;;;;;;;;;21.10;99.90;;;;;;5012876;28;20339;-64
2022/10/10 13:53:48;;;;;;;;;;;20.80;99.90;;;;;;5012671;28;19926;-67
2022/10/10 13:56:16;;;;;;;;;;;20.60;99.90;;;;;;5012823;28;19925;-65
2022/10/10 13:58:44;;;;;;;;;;;20.40;99.90;;;;;;5012572;28;19968;-65
2022/10/10 14:01:29;;;;;;;;;;;20.10;99.90;;;;;;5012687;28;19933;-72
2022/10/10 14:03:59;;;;;;;;;;;20.00;99.90;;;;;;5011594;28;20423;-65
2022/10/10 14:06:27;;;;;;;;;;;19.80;99.90;;;;;;5012481;28;20355;-65
2022/10/10 14:08:56;;;;;;;;;;;19.70;99.90;;;;;;5012229;28;19933;-64
2022/10/10 14:11:23;;;;;;;;;;;19.50;99.90;;;;;;5002024;28;19925;-65
2022/10/10 14:13:52;;;;;;;;;;;19.50;99.90;;;;;;4992676;28;19926;-65
2022/10/10 14:16:23;;;;;;;;;;;19.40;99.90;;;;;;4993244;28;20004;-63
2022/10/10 14:18:50;;;;;;;;;;;19.30;99.90;;;;;;5010064;28;19925;-65
2022/10/10 14:21:18;;;;;;;;;;;19.30;99.90;;;;;;5012340;28;19929;-65
2022/10/10 14:23:44;;;;;;;;;;;19.20;99.90;;;;;;5011956;28;20351;-64
2022/10/10 14:26:14;;;;;;;;;;;19.20;99.90;;;;;;5012532;28;20025;-64
2022/10/10 14:28:41;;;;;;;;;;;19.10;99.90;;;;;;5012138;28;20388;-64
2022/10/10 14:31:08;;;;;;;;;;;19.00;99.90;;;;;;5011858;28;19926;-64
2022/10/10 14:33:34;;;;;;;;;;;19.00;99.90;;;;;;5008780;28;19930;-64
2022/10/10 14:36:01;;;;;;;;;;;18.80;99.90;;;;;;4999333;28;19925;-63
2022/10/10 14:38:30;;;;;;;;;;;18.80;99.90;;;;;;5001147;28;21041;-64
2022/10/10 14:40:57;;;;;;;;;;;18.70;99.90;;;;;;5005877;28;19930;-64
2022/10/10 14:43:24;;;;;;;;;;;18.80;99.90;;;;;;5002884;28;19981;-63
2022/10/10 14:45:51;;;;;;;;;;;18.60;99.90;;;;;;5002409;28;19956;-64
2022/10/10 14:48:18;;;;;;;;;;;18.60;99.90;;;;;;4994929;28;19976;-64
2022/10/10 14:50:46;;;;;;;;;;;18.60;99.90;;;;;;4991071;28;19934;-64
2022/10/10 14:53:13;;;;;;;;;;;18.60;99.90;;;;;;4992121;28;20352;-65
2022/10/10 14:55:42;;;;;;;;;;;18.60;99.90;;;;;;5009251;28;19926;-65
2022/10/10 14:58:10;;;;;;;;;;;18.50;99.90;;;;;;4994486;28;19976;-65
2022/10/10 15:00:36;;;;;;;;;;;18.50;99.90;;;;;;4992910;28;19933;-65
2022/10/10 15:03:03;;;;;;;;;;;18.50;99.90;;;;;;5018054;23;19926;-69
2022/10/10 15:05:30;;;;;;;;;;;18.40;99.90;;;;;;4991791;28;20451;-72
2022/10/10 15:07:56;;;;;;;;;;;18.40;99.90;;;;;;4993187;28;19957;-72
2022/10/10 15:10:23;;;;;;;;;;;18.40;99.90;;;;;;4995138;28;20017;-67
2022/10/10 15:12:51;;;;;;;;;;;18.40;99.90;;;;;;5011034;28;19925;-65
2022/10/10 15:15:18;;;;;;;;;;;18.40;99.90;;;;;;5011260;28;19929;-66
2022/10/10 15:17:45;;;;;;;;;;;18.50;99.90;;;;;;5011187;28;19929;-68
2022/10/10 15:20:12;;;;;;;;;;;18.60;99.90;;;;;;5010861;28;19926;-67
2022/10/10 15:22:39;;;;;;;;;;;18.60;99.90;;;;;;5008808;28;19925;-72
2022/10/10 15:25:07;;;;;;;;;;;18.50;99.90;;;;;;5010555;28;19932;-67
2022/10/10 15:27:33;;;;;;;;;;;18.40;99.90;;;;;;5008257;28;19926;-68
2022/10/10 15:30:01;;;;;;;;;;;18.30;99.90;;;;;;5001133;28;20459;-67
2022/10/10 15:32:28;;;;;;;;;;;18.20;99.90;;;;;;4999405;28;20401;-67
2022/10/10 15:34:55;;;;;;;;;;;18.10;99.90;;;;;;4999465;28;19980;-67
2022/10/10 15:37:24;;;;;;;;;;;17.90;99.90;;;;;;4999141;28;19929;-69
2022/10/10 15:39:50;;;;;;;;;;;18.00;99.90;;;;;;5003785;28;20380;-70
2022/10/10 15:42:17;;;;;;;;;;;17.90;99.90;;;;;;5010750;28;20388;-67
2022/10/10 15:44:45;;;;;;;;;;;17.80;99.90;;;;;;5011010;28;19991;-67
2022/10/10 15:47:14;;;;;;;;;;;17.80;99.90;;;;;;5012026;28;19933;-68
2022/10/10 15:49:41;;;;;;;;;;;17.80;99.90;;;;;;5010763;28;19929;-68
2022/10/10 15:52:08;;;;;;;;;;;17.70;99.90;;;;;;5000091;28;20349;-68
2022/10/10 15:54:35;;;;;;;;;;;17.70;99.90;;;;;;4999691;28;19926;-68
2022/10/10 15:57:01;;;;;;;;;;;17.70;99.90;;;;;;5005187;28;20340;-68
2022/10/10 15:59:28;;;;;;;;;;;17.70;99.90;;;;;;5001318;28;19925;-68
2022/10/10 16:01:55;;;;;;;;;;;17.60;99.90;;;;;;4996013;28;19940;-68
2022/10/10 16:04:24;;;;;;;;;;;17.60;99.90;;;;;;5001286;28;19932;-67
2022/10/10 16:06:52;;;;;;;;;;;17.60;99.90;;;;;;5000033;28;20024;-67
2022/10/10 16:09:18;;;;;;;;;;;17.50;99.90;;;;;;5001174;28;20387;-68
2022/10/10 16:11:45;;;;;;;;;;;17.50;99.90;;;;;;4997594;28;19937;-68
2022/10/10 16:14:12;;;;;;;;;;;17.40;99.90;;;;;;5010143;28;19925;-68
2022/10/10 16:16:39;;;;;;;;;;;17.40;99.90;;;;;;5001713;28;19930;-68
2022/10/10 16:19:06;;;;;;;;;;;17.30;99.90;;;;;;5002226;28;20408;-68
2022/10/10 16:21:34;;;;;;;;;;;17.30;99.90;;;;;;5007534;28;19925;-68
2022/10/10 16:24:01;;;;;;;;;;;17.20;99.90;;;;;;5009131;28;19980;-68
2022/10/10 16:26:30;;;;;;;;;;;17.20;99.90;;;;;;4993246;28;19934;-68
2022/10/10 16:28:57;;;;;;;;;;;17.10;99.90;;;;;;5000100;28;19926;-68
2022/10/10 16:31:24;;;;;;;;;;;17.00;99.90;;;;;;4996254;28;19940;-68
2022/10/10 16:33:51;;;;;;;;;;;17.00;99.90;;;;;;4996629;28;20467;-66
2022/10/10 16:36:19;;;;;;;;;;;16.90;99.90;;;;;;4996743;28;19937;-67
2022/10/10 16:38:48;;;;;;;;;;;16.90;99.90;;;;;;4999199;28;19930;-66
2022/10/10 16:41:16;;;;;;;;;;;16.80;99.90;;;;;;4999151;28;19926;-68
2022/10/10 16:43:43;;;;;;;;;;;16.80;99.90;;;;;;4998774;28;19929;-67
2022/10/10 16:46:12;;;;;;;;;;;16.70;99.90;;;;;;5000057;28;20380;-67
2022/10/10 16:48:39;;;;;;;;;;;16.70;99.90;;;;;;5000679;28;19934;-67
2022/10/10 16:51:07;;;;;;;;;;;16.60;99.90;;;;;;4992267;28;19972;-68
2022/10/10 16:53:34;;;;;;;;;;;16.50;99.90;;;;;;5009024;28;20376;-68
2022/10/10 16:56:03;;;;;;;;;;;16.50;99.90;;;;;;4999174;28;19926;-68
2022/10/10 16:58:30;;;;;;;;;;;16.40;99.90;;;;;;4990655;28;19941;-68
2022/10/10 17:00:57;;;;;;;;;;;16.40;99.90;;;;;;4993375;28;19977;-68
2022/10/10 17:03:24;;;;;;;;;;;16.30;99.90;;;;;;4995033;28;19932;-67
2022/10/10 17:06:00;;;;;;;;;;;16.30;99.90;;;;;;4990241;28;20032;-69
2022/10/10 17:08:26;;;;;;;;;;;16.20;99.90;;;;;;4990203;28;19926;-68
2022/10/10 17:10:53;;;;;;;;;;;16.20;99.90;;;;;;4993675;28;19926;-68
2022/10/10 17:13:21;;;;;;;;;;;16.20;99.90;;;;;;4990944;28;19932;-67
2022/10/10 17:15:48;;;;;;;;;;;16.10;99.90;;;;;;4993968;28;19930;-68
2022/10/10 17:18:16;;;;;;;;;;;16.10;99.90;;;;;;4994099;28;20352;-67
2022/10/10 17:20:43;;;;;;;;;;;16.10;99.90;;;;;;4993681;28;20017;-68
2022/10/10 17:23:10;;;;;;;;;;;16.10;99.90;;;;;;4993673;28;19957;-68
2022/10/10 17:25:40;;;;;;;;;;;16.00;99.90;;;;;;4993964;28;19926;-68
2022/10/10 17:28:06;;;;;;;;;;;16.00;99.90;;;;;;4993870;28;20355;-68
2022/10/10 17:30:35;;;;;;;;;;;16.00;99.90;;;;;;4993168;28;20289;-68